createdAt,value
2017-12-06T00:02:27.122Z,3.90
2017-12-06T00:04:55.607Z,3.90
2017-12-06T00:07:23.006Z,3.90
2017-12-06T00:09:50.983Z,4.00
2017-12-06T00:12:24.737Z,4.00
2017-12-06T00:14:57.879Z,3.90
2017-12-06T00:17:25.703Z,4.00
2017-12-06T00:19:53.111Z,4.00
2017-12-06T00:22:20.522Z,3.90
2017-12-06T00:24:47.976Z,3.90
2017-12-06T00:27:15.392Z,3.90
2017-12-06T00:29:42.816Z,4.00
2017-12-06T00:32:11.003Z,4.00
2017-12-06T00:34:38.424Z,4.00
2017-12-06T00:37:05.847Z,4.00
2017-12-06T00:39:34.023Z,3.90
2017-12-06T00:42:01.447Z,3.90
2017-12-06T00:44:28.871Z,3.90
2017-12-06T00:46:56.290Z,3.90
2017-12-06T00:49:24.374Z,3.90
2017-12-06T00:51:51.790Z,3.80
2017-12-06T00:54:19.603Z,3.90
2017-12-06T00:56:47.482Z,3.80
2017-12-06T00:59:14.874Z,3.80
2017-12-06T01:01:42.299Z,3.80
2017-12-06T01:04:10.523Z,3.80
2017-12-06T01:06:37.943Z,3.90
2017-12-06T01:09:10.128Z,3.90
2017-12-06T01:11:38.700Z,3.90
2017-12-06T01:14:07.992Z,3.80
2017-12-06T01:16:36.182Z,3.90
2017-12-06T01:19:07.267Z,3.90
2017-12-06T01:21:34.687Z,3.90
2017-12-06T01:24:02.103Z,3.90
2017-12-06T01:26:29.526Z,3.90
2017-12-06T01:28:56.951Z,3.80
2017-12-06T01:31:27.468Z,3.80
2017-12-06T01:33:55.654Z,3.80
2017-12-06T01:36:23.062Z,3.80
2017-12-06T01:38:50.896Z,3.80
2017-12-06T01:41:18.315Z,3.80
2017-12-06T01:43:46.513Z,3.80
2017-12-06T01:46:14.463Z,3.80
2017-12-06T01:48:42.660Z,3.80
2017-12-06T01:51:10.084Z,3.80
2017-12-06T01:53:37.498Z,3.80
2017-12-06T01:56:04.923Z,3.80
2017-12-06T01:58:32.343Z,3.90
2017-12-06T02:00:59.760Z,3.90
2017-12-06T02:03:27.839Z,3.90
2017-12-06T02:05:55.259Z,3.90
2017-12-06T02:08:22.696Z,3.90
2017-12-06T02:10:50.884Z,3.90
2017-12-06T02:13:19.595Z,3.90
2017-12-06T02:15:47.011Z,3.90
2017-12-06T02:18:14.438Z,3.90
2017-12-06T02:20:42.432Z,3.90
2017-12-06T02:23:09.855Z,3.90
2017-12-06T02:25:37.279Z,3.90
2017-12-06T02:28:04.975Z,3.90
2017-12-06T02:30:32.376Z,3.90
2017-12-06T02:33:01.090Z,4.00
2017-12-06T02:35:28.517Z,3.90
2017-12-06T02:37:56.701Z,4.00
2017-12-06T02:40:36.646Z,4.00
2017-12-06T02:43:16.798Z,4.00
2017-12-06T02:45:44.983Z,4.00
2017-12-06T02:48:13.169Z,4.00
2017-12-06T02:50:40.595Z,4.00
2017-12-06T02:53:08.010Z,4.00
2017-12-06T02:55:35.426Z,4.00
2017-12-06T02:58:02.853Z,4.00
2017-12-06T03:00:30.271Z,4.00
2017-12-06T03:02:57.691Z,4.10
2017-12-06T03:05:25.898Z,4.10
2017-12-06T03:07:53.316Z,4.00
2017-12-06T03:10:21.530Z,4.00
2017-12-06T03:12:48.956Z,4.00
2017-12-06T03:15:17.130Z,4.00
2017-12-06T03:17:45.311Z,4.10
2017-12-06T03:20:13.275Z,4.00
2017-12-06T03:22:41.744Z,4.10
2017-12-06T03:25:09.687Z,4.00
2017-12-06T03:27:37.099Z,4.10
2017-12-06T03:30:04.515Z,4.00
2017-12-06T03:32:31.935Z,4.00
2017-12-06T03:34:59.891Z,4.00
2017-12-06T03:37:27.334Z,4.00
2017-12-06T03:39:54.774Z,4.00
2017-12-06T03:42:22.957Z,4.00
2017-12-06T03:44:50.369Z,4.00
2017-12-06T03:47:17.787Z,4.00
2017-12-06T03:49:48.266Z,4.00
2017-12-06T03:52:15.699Z,4.00
2017-12-06T03:54:43.632Z,4.00
2017-12-06T03:57:11.439Z,4.00
2017-12-06T03:59:38.868Z,4.00
2017-12-06T04:02:06.283Z,4.00
2017-12-06T04:04:34.468Z,4.00
2017-12-06T04:07:03.262Z,3.90
2017-12-06T04:09:30.680Z,3.90
2017-12-06T04:11:58.101Z,3.90
2017-12-06T04:14:25.523Z,3.90
2017-12-06T04:16:54.070Z,3.90
2017-12-06T04:19:22.064Z,3.90
2017-12-06T04:21:50.260Z,3.80
2017-12-06T04:24:17.684Z,3.80
2017-12-06T04:26:45.115Z,3.80
2017-12-06T04:29:12.534Z,3.90
2017-12-06T04:31:44.780Z,3.80
2017-12-06T04:34:12.878Z,3.80
2017-12-06T04:36:42.131Z,3.90
2017-12-06T04:39:09.659Z,3.80
2017-12-06T04:41:37.078Z,3.90
2017-12-06T04:44:05.485Z,3.90
2017-12-06T04:46:32.904Z,3.90
2017-12-06T04:49:01.090Z,3.90
2017-12-06T04:51:29.266Z,3.90
2017-12-06T04:53:56.700Z,3.90
2017-12-06T04:56:24.115Z,3.90
2017-12-06T04:58:51.851Z,3.90
2017-12-06T05:01:19.476Z,3.90
2017-12-06T05:03:46.906Z,3.90
2017-12-06T05:06:17.882Z,4.00
2017-12-06T05:08:45.306Z,3.90
2017-12-06T05:11:13.176Z,3.90
2017-12-06T05:13:40.602Z,3.90
2017-12-06T05:16:09.347Z,3.90
2017-12-06T05:18:36.781Z,3.90
2017-12-06T05:21:04.204Z,3.90
2017-12-06T05:23:31.627Z,3.80
2017-12-06T05:25:59.820Z,3.80
2017-12-06T05:28:27.664Z,3.80
2017-12-06T05:30:55.854Z,3.80
2017-12-06T05:33:24.599Z,3.70
2017-12-06T05:35:52.011Z,3.70
2017-12-06T05:38:20.775Z,3.70
2017-12-06T05:40:49.245Z,3.70
2017-12-06T05:43:17.652Z,3.70
2017-12-06T05:45:45.063Z,3.70
2017-12-06T05:48:12.951Z,3.70
2017-12-06T05:50:40.371Z,3.70
2017-12-06T05:53:07.787Z,3.80
2017-12-06T05:55:35.832Z,3.80
2017-12-06T05:58:03.256Z,3.90
2017-12-06T06:00:30.680Z,3.90
2017-12-06T06:02:58.483Z,3.90
2017-12-06T06:05:25.891Z,3.90
2017-12-06T06:07:53.311Z,3.90
2017-12-06T06:10:20.775Z,3.90
2017-12-06T06:12:48.784Z,3.90
2017-12-06T06:15:17.026Z,3.90
2017-12-06T06:17:45.214Z,3.90
2017-12-06T06:20:15.799Z,3.90
2017-12-06T06:22:43.751Z,3.90
2017-12-06T06:25:11.725Z,3.90
2017-12-06T06:27:39.143Z,3.90
2017-12-06T06:30:07.475Z,4.00
2017-12-06T06:32:38.219Z,3.90
2017-12-06T06:35:05.647Z,3.90
2017-12-06T06:37:33.071Z,3.90
2017-12-06T06:40:01.665Z,3.90
2017-12-06T06:42:30.215Z,3.90
2017-12-06T06:44:57.642Z,3.90
2017-12-06T06:47:25.457Z,3.90
2017-12-06T06:49:53.665Z,3.90
2017-12-06T06:52:21.072Z,3.90
2017-12-06T06:54:49.259Z,3.90
2017-12-06T06:57:17.460Z,3.90
2017-12-06T06:59:44.876Z,3.90
2017-12-06T07:02:12.302Z,3.90
2017-12-06T07:04:39.723Z,3.90
2017-12-06T07:07:07.143Z,3.90
2017-12-06T07:09:36.173Z,3.90
2017-12-06T07:12:03.596Z,3.90
2017-12-06T07:14:31.015Z,3.90
2017-12-06T07:16:58.444Z,3.90
2017-12-06T07:19:25.863Z,3.90
2017-12-06T07:21:53.560Z,3.90
2017-12-06T07:24:22.139Z,3.90
2017-12-06T07:26:49.563Z,3.90
2017-12-06T07:29:17.403Z,4.00
2017-12-06T07:31:44.835Z,4.00
2017-12-06T07:34:12.539Z,4.00
2017-12-06T07:36:39.940Z,4.00
2017-12-06T07:39:07.883Z,4.00
2017-12-06T07:41:37.980Z,4.00
2017-12-06T07:44:05.403Z,4.00
2017-12-06T07:46:33.976Z,4.10
2017-12-06T07:49:01.807Z,4.10
2017-12-06T07:51:29.596Z,4.10
2017-12-06T07:53:59.496Z,4.10
2017-12-06T07:56:28.295Z,4.10
2017-12-06T07:59:03.225Z,4.10
2017-12-06T08:01:30.616Z,4.10
2017-12-06T08:03:58.816Z,4.20
2017-12-06T08:06:26.224Z,4.20
2017-12-06T08:08:54.766Z,4.20
2017-12-06T08:11:22.283Z,4.30
2017-12-06T08:13:55.829Z,4.30
2017-12-06T08:16:23.242Z,4.30
2017-12-06T08:18:50.667Z,4.30
2017-12-06T08:21:18.635Z,4.40
2017-12-06T08:23:46.833Z,4.40
2017-12-06T08:26:14.252Z,4.40
2017-12-06T08:28:42.861Z,4.40
2017-12-06T08:31:10.672Z,4.40
2017-12-06T08:33:39.195Z,4.50
2017-12-06T08:36:07.963Z,4.50
2017-12-06T08:38:35.392Z,4.50
2017-12-06T08:41:02.813Z,4.50
2017-12-06T08:43:30.230Z,4.50
2017-12-06T08:45:57.666Z,4.60
2017-12-06T08:48:26.222Z,4.60
2017-12-06T08:50:54.558Z,4.50
2017-12-06T08:53:22.366Z,4.60
2017-12-06T08:55:50.635Z,4.60
2017-12-06T08:58:18.055Z,4.60
2017-12-06T09:00:46.262Z,4.70
2017-12-06T09:03:13.675Z,4.70
2017-12-06T09:05:41.632Z,4.70
2017-12-06T09:08:09.050Z,4.70
2017-12-06T09:10:36.467Z,4.60
2017-12-06T09:13:04.667Z,4.60
2017-12-06T09:15:32.096Z,4.60
2017-12-06T09:17:59.518Z,4.60
2017-12-06T09:20:26.935Z,4.60
2017-12-06T09:22:54.357Z,4.60
2017-12-06T09:25:22.312Z,4.70
2017-12-06T09:27:49.738Z,4.70
2017-12-06T09:30:17.146Z,4.70
2017-12-06T09:32:45.994Z,4.80
2017-12-06T09:35:13.979Z,4.80
2017-12-06T09:37:41.410Z,4.90
2017-12-06T09:40:09.263Z,4.90
2017-12-06T09:42:36.698Z,4.90
2017-12-06T09:45:05.419Z,5.00
2017-12-06T09:47:32.835Z,5.00
2017-12-06T09:50:01.018Z,4.90
2017-12-06T09:52:29.217Z,5.00
2017-12-06T09:54:56.636Z,5.00
2017-12-06T09:57:24.267Z,5.00
2017-12-06T09:59:52.339Z,5.10
2017-12-06T10:02:19.748Z,5.10
2017-12-06T10:04:47.727Z,5.20
2017-12-06T10:07:15.154Z,5.20
2017-12-06T10:09:43.727Z,5.30
2017-12-06T10:12:11.144Z,5.30
2017-12-06T10:14:38.772Z,5.30
2017-12-06T10:17:07.275Z,5.40
2017-12-06T10:19:35.450Z,5.40
2017-12-06T10:22:03.274Z,5.40
2017-12-06T10:24:31.105Z,5.40
2017-12-06T10:26:58.917Z,5.40
2017-12-06T10:29:27.105Z,5.50
2017-12-06T10:31:54.520Z,5.50
2017-12-06T10:34:21.936Z,5.50
2017-12-06T10:36:49.358Z,5.50
2017-12-06T10:39:17.547Z,5.50
2017-12-06T10:41:45.412Z,5.50
2017-12-06T10:44:13.596Z,5.50
2017-12-06T10:46:41.130Z,5.50
2017-12-06T10:49:10.129Z,5.60
2017-12-06T10:51:37.935Z,5.50
2017-12-06T10:54:05.882Z,5.60
2017-12-06T10:56:33.301Z,5.60
2017-12-06T10:59:01.269Z,5.60
2017-12-06T11:01:29.498Z,5.70
2017-12-06T11:03:56.919Z,5.60
2017-12-06T11:06:25.106Z,5.70
2017-12-06T11:08:52.952Z,5.70
2017-12-06T11:11:20.386Z,5.60
2017-12-06T11:13:48.304Z,5.70
2017-12-06T11:16:16.266Z,5.60
2017-12-06T11:18:46.567Z,5.60
2017-12-06T11:21:13.977Z,5.60
2017-12-06T11:23:41.392Z,5.60
2017-12-06T11:26:09.580Z,5.60
2017-12-06T11:28:37.703Z,5.60
2017-12-06T11:31:05.922Z,5.60
2017-12-06T11:33:33.340Z,5.60
2017-12-06T11:36:01.151Z,5.60
2017-12-06T11:38:29.323Z,5.70
2017-12-06T11:40:56.747Z,5.70
2017-12-06T11:43:24.162Z,5.80
2017-12-06T11:45:51.593Z,5.90
2017-12-06T11:48:19.019Z,5.90
2017-12-06T11:50:46.437Z,5.90
2017-12-06T11:53:13.851Z,6.00
2017-12-06T11:55:42.053Z,6.20
2017-12-06T11:58:10.248Z,6.10
2017-12-06T12:00:38.439Z,6.20
2017-12-06T12:03:06.272Z,6.20
2017-12-06T12:05:33.694Z,6.10
2017-12-06T12:08:01.875Z,6.10
2017-12-06T12:10:30.068Z,6.10
2017-12-06T12:12:57.482Z,6.10
2017-12-06T12:15:24.912Z,6.10
2017-12-06T12:17:52.328Z,6.10
2017-12-06T12:20:20.304Z,6.10
2017-12-06T12:22:47.728Z,6.20
2017-12-06T12:25:16.192Z,6.10
2017-12-06T12:27:43.583Z,6.10
2017-12-06T12:30:10.996Z,6.10
2017-12-06T12:32:38.420Z,6.20
2017-12-06T12:35:07.028Z,6.30
2017-12-06T12:37:34.462Z,6.20
2017-12-06T12:40:01.868Z,6.30
2017-12-06T12:42:29.722Z,6.20
2017-12-06T12:44:57.195Z,6.30
2017-12-06T12:47:25.170Z,6.20
2017-12-06T12:49:52.583Z,6.20
2017-12-06T12:52:20.003Z,6.20
2017-12-06T12:54:47.430Z,6.20
2017-12-06T12:57:15.082Z,6.30
2017-12-06T12:59:43.313Z,6.20
2017-12-06T13:02:11.883Z,6.40
2017-12-06T13:04:40.034Z,6.40
2017-12-06T13:07:08.226Z,6.50
2017-12-06T13:09:35.644Z,6.50
2017-12-06T13:12:03.240Z,6.60
2017-12-06T13:14:31.922Z,6.60
2017-12-06T13:16:59.393Z,6.60
2017-12-06T13:19:26.808Z,6.60
2017-12-06T13:21:54.290Z,6.50
2017-12-06T13:24:21.648Z,6.50
2017-12-06T13:26:49.834Z,6.60
2017-12-06T13:29:17.256Z,6.50
2017-12-06T13:31:44.683Z,6.50
2017-12-06T13:34:12.099Z,6.50
2017-12-06T13:36:42.341Z,6.60
2017-12-06T13:39:09.767Z,6.50
2017-12-06T13:41:37.957Z,6.40
2017-12-06T13:44:06.070Z,6.40
2017-12-06T13:46:33.486Z,6.40
2017-12-06T13:49:00.908Z,6.30
2017-12-06T13:51:29.077Z,6.30
2017-12-06T13:53:56.488Z,6.20
2017-12-06T13:56:23.933Z,6.10
2017-12-06T13:58:51.934Z,6.10
2017-12-06T14:01:19.366Z,6.10
2017-12-06T14:03:46.801Z,6.10
2017-12-06T14:06:14.978Z,5.90
2017-12-06T14:08:43.166Z,5.90
2017-12-06T14:11:10.595Z,5.90
2017-12-06T14:13:38.788Z,6.00
2017-12-06T14:16:06.203Z,5.90
2017-12-06T14:18:33.938Z,6.00
2017-12-06T14:21:01.354Z,5.90
2017-12-06T14:23:29.785Z,5.80
2017-12-06T14:25:57.185Z,5.80
2017-12-06T14:28:25.367Z,5.70
2017-12-06T14:30:53.562Z,5.70
2017-12-06T14:33:21.288Z,5.70
2017-12-06T14:35:48.687Z,5.70
2017-12-06T14:38:16.102Z,5.60
2017-12-06T14:40:44.295Z,5.60
2017-12-06T14:43:12.657Z,5.60
2017-12-06T14:45:40.058Z,5.60
2017-12-06T14:48:07.477Z,5.60
2017-12-06T14:50:34.908Z,5.50
2017-12-06T14:53:02.324Z,5.50
2017-12-06T14:55:29.751Z,5.50
2017-12-06T14:57:57.936Z,5.50
2017-12-06T15:00:25.403Z,5.40
2017-12-06T15:02:52.820Z,5.40
2017-12-06T15:05:20.235Z,5.40
2017-12-06T15:07:47.766Z,5.40
2017-12-06T15:10:15.934Z,5.30
2017-12-06T15:12:44.122Z,5.30
2017-12-06T15:15:11.794Z,5.30
2017-12-06T15:17:39.959Z,5.30
2017-12-06T15:20:07.379Z,5.30
2017-12-06T15:22:34.800Z,5.30
2017-12-06T15:25:02.224Z,5.20
2017-12-06T15:27:29.649Z,5.20
2017-12-06T15:29:57.067Z,5.20
2017-12-06T15:32:24.492Z,5.10
2017-12-06T15:34:51.908Z,5.10
2017-12-06T15:37:19.330Z,5.10
2017-12-06T15:39:46.748Z,5.10
2017-12-06T15:42:14.939Z,5.00
2017-12-06T15:44:42.366Z,5.00
2017-12-06T15:47:09.790Z,5.00
2017-12-06T15:49:43.006Z,5.10
2017-12-06T15:52:10.776Z,5.00
2017-12-06T15:54:38.172Z,5.00
2017-12-06T15:57:25.196Z,5.00
2017-12-06T15:59:56.800Z,5.00
2017-12-06T16:02:24.224Z,4.90
2017-12-06T16:04:52.310Z,4.90
2017-12-06T16:07:20.700Z,4.90
2017-12-06T16:09:48.119Z,4.90
2017-12-06T16:12:15.535Z,4.90
2017-12-06T16:14:43.724Z,4.90
2017-12-06T16:17:12.293Z,4.90
2017-12-06T16:19:40.484Z,4.80
2017-12-06T16:22:08.346Z,4.80
2017-12-06T16:24:35.764Z,4.70
2017-12-06T16:27:04.268Z,4.70
2017-12-06T16:29:32.456Z,4.60
2017-12-06T16:32:00.653Z,4.60
2017-12-06T16:34:33.231Z,4.60
2017-12-06T16:37:12.695Z,4.60
2017-12-06T16:39:40.378Z,4.60
2017-12-06T16:42:07.764Z,4.60
2017-12-06T16:44:52.766Z,4.50
2017-12-06T16:47:20.198Z,4.50
2017-12-06T16:49:47.621Z,4.50
2017-12-06T16:52:15.034Z,4.50
2017-12-06T16:54:42.469Z,4.50
2017-12-06T16:57:09.884Z,4.40
2017-12-06T16:59:37.879Z,4.40
2017-12-06T17:02:06.116Z,4.40
2017-12-06T17:04:33.491Z,4.40
2017-12-06T17:07:00.915Z,4.40
2017-12-06T17:09:29.343Z,4.40
2017-12-06T17:11:57.519Z,4.30
2017-12-06T17:14:25.712Z,4.30
2017-12-06T17:16:53.123Z,4.30
2017-12-06T17:19:20.560Z,4.40
2017-12-06T17:21:47.979Z,4.30
2017-12-06T17:24:15.411Z,4.30
2017-12-06T17:26:43.594Z,4.30
2017-12-06T17:29:24.400Z,4.30
2017-12-06T17:31:52.226Z,4.30
2017-12-06T17:34:22.881Z,4.30
2017-12-06T17:36:50.311Z,4.30
2017-12-06T17:39:18.502Z,4.30
2017-12-06T17:41:45.922Z,4.30
2017-12-06T17:44:13.351Z,4.30
2017-12-06T17:46:40.799Z,4.20
2017-12-06T17:49:08.256Z,4.20
2017-12-06T17:51:35.671Z,4.20
2017-12-06T17:54:03.866Z,4.10
2017-12-06T17:56:31.283Z,4.10
2017-12-06T17:58:58.699Z,4.10
2017-12-06T18:01:26.124Z,4.10
2017-12-06T18:03:54.987Z,4.00
2017-12-06T18:06:22.390Z,4.00
2017-12-06T18:08:49.807Z,4.00
2017-12-06T18:11:17.239Z,4.00
2017-12-06T18:13:44.659Z,4.00
2017-12-06T18:16:12.090Z,4.10
2017-12-06T18:18:40.275Z,4.10
2017-12-06T18:21:09.467Z,4.10
2017-12-06T18:23:37.638Z,4.10
2017-12-06T18:26:05.836Z,4.00
2017-12-06T18:28:33.250Z,4.00
2017-12-06T18:31:03.096Z,4.00
2017-12-06T18:33:30.510Z,4.00
2017-12-06T18:35:57.935Z,4.00
2017-12-06T18:38:25.364Z,4.00
2017-12-06T18:40:52.793Z,4.00
2017-12-06T18:43:20.203Z,4.00
2017-12-06T18:45:47.640Z,4.00
2017-12-06T18:48:16.251Z,4.00
2017-12-06T18:50:43.672Z,4.00
2017-12-06T18:53:11.091Z,4.00
2017-12-06T18:55:38.532Z,4.00
2017-12-06T18:58:05.955Z,4.00
2017-12-06T19:00:33.371Z,4.00
2017-12-06T19:03:00.795Z,4.00
2017-12-06T19:05:28.210Z,3.90
2017-12-06T19:07:55.642Z,3.90
2017-12-06T19:10:23.059Z,3.90
2017-12-06T19:12:50.521Z,3.90
2017-12-06T19:15:17.927Z,3.90
2017-12-06T19:17:46.500Z,3.80
2017-12-06T19:20:13.887Z,3.90
2017-12-06T19:22:41.311Z,3.80
2017-12-06T19:25:08.730Z,3.80
2017-12-06T19:27:41.657Z,3.80
2017-12-06T19:30:09.063Z,3.80
2017-12-06T19:32:36.492Z,3.80
2017-12-06T19:35:03.911Z,3.80
2017-12-06T19:37:31.353Z,3.80
2017-12-06T19:39:58.777Z,3.80
2017-12-06T19:42:26.201Z,3.80
2017-12-06T19:44:54.812Z,3.80
2017-12-06T19:47:22.231Z,3.80
2017-12-06T19:49:49.651Z,3.80
2017-12-06T19:52:17.079Z,3.70
2017-12-06T19:54:44.491Z,3.70
2017-12-06T19:57:15.021Z,3.70
2017-12-06T19:59:43.085Z,3.80
2017-12-06T20:02:10.479Z,3.70
2017-12-06T20:04:38.681Z,3.60
2017-12-06T20:07:10.175Z,3.60
2017-12-06T20:09:37.599Z,3.60
2017-12-06T20:12:05.027Z,3.60
2017-12-06T20:14:32.459Z,3.60
2017-12-06T20:16:59.882Z,3.60
2017-12-06T20:19:28.080Z,3.50
2017-12-06T20:21:55.499Z,3.50
2017-12-06T20:24:23.475Z,3.50
2017-12-06T20:26:50.917Z,3.60
2017-12-06T20:29:19.354Z,3.60
2017-12-06T20:31:47.551Z,3.50
2017-12-06T20:34:16.416Z,3.50
2017-12-06T20:36:43.831Z,3.50
2017-12-06T20:39:11.250Z,3.50
2017-12-06T20:41:38.719Z,3.50
2017-12-06T20:44:06.143Z,3.50
2017-12-06T20:46:35.037Z,3.50
2017-12-06T20:49:03.240Z,3.50
2017-12-06T20:51:31.087Z,3.40
2017-12-06T20:53:59.294Z,3.50
2017-12-06T20:56:37.724Z,3.50
2017-12-06T20:59:05.149Z,3.50
2017-12-06T21:01:32.566Z,3.50
2017-12-06T21:03:59.998Z,3.50
2017-12-06T21:06:27.949Z,3.50
2017-12-06T21:08:55.371Z,3.50
2017-12-06T21:11:23.559Z,3.40
2017-12-06T21:13:50.987Z,3.40
2017-12-06T21:16:18.412Z,3.40
2017-12-06T21:18:53.799Z,3.40
2017-12-06T21:21:21.990Z,3.30
2017-12-06T21:23:49.416Z,3.40
2017-12-06T21:26:16.840Z,3.30
2017-12-06T21:28:44.255Z,3.30
2017-12-06T21:31:11.678Z,3.30
2017-12-06T21:33:39.107Z,3.30
2017-12-06T21:36:06.519Z,3.30
2017-12-06T21:38:34.942Z,3.30
2017-12-06T21:41:02.368Z,3.30
2017-12-06T21:43:29.792Z,3.20
2017-12-06T21:45:57.216Z,3.20
2017-12-06T21:48:24.639Z,3.20
2017-12-06T21:50:52.063Z,3.20
2017-12-06T21:53:20.247Z,3.20
2017-12-06T21:55:48.443Z,3.20
2017-12-06T21:58:15.863Z,3.20
2017-12-06T22:00:43.487Z,3.20
2017-12-06T22:03:10.918Z,3.20
2017-12-06T22:05:38.371Z,3.20
2017-12-06T22:08:05.767Z,3.20
2017-12-06T22:10:33.191Z,3.20
2017-12-06T22:13:01.160Z,3.20
2017-12-06T22:15:28.907Z,3.20
2017-12-06T22:17:57.647Z,3.10
2017-12-06T22:20:25.087Z,3.10
2017-12-06T22:22:56.062Z,3.10
2017-12-06T22:25:23.486Z,3.10
2017-12-06T22:27:50.916Z,3.10
2017-12-06T22:30:18.363Z,3.10
2017-12-06T22:32:46.951Z,3.10
2017-12-06T22:35:14.363Z,3.10
2017-12-06T22:37:42.197Z,3.10
2017-12-06T22:40:11.564Z,3.10
2017-12-06T22:42:38.963Z,3.10
2017-12-06T22:45:15.351Z,3.10
2017-12-06T22:47:42.751Z,3.10
2017-12-06T22:50:10.939Z,3.10
2017-12-06T22:52:38.906Z,3.10
2017-12-06T22:55:06.385Z,3.00
2017-12-06T22:57:34.043Z,3.00
2017-12-06T23:00:01.847Z,3.00
2017-12-06T23:02:29.279Z,3.00
2017-12-06T23:04:56.698Z,3.00
2017-12-06T23:07:25.262Z,3.00
2017-12-06T23:09:53.443Z,3.00
2017-12-06T23:12:22.629Z,3.00
2017-12-06T23:14:50.038Z,3.00
2017-12-06T23:17:17.459Z,3.00
2017-12-06T23:19:44.890Z,3.00
2017-12-06T23:22:12.311Z,2.90
2017-12-06T23:24:39.728Z,2.90
2017-12-06T23:27:07.935Z,2.90
2017-12-06T23:29:35.349Z,2.90
2017-12-06T23:32:03.564Z,2.90
2017-12-06T23:34:31.404Z,2.90
2017-12-06T23:36:58.818Z,2.90
2017-12-06T23:39:26.248Z,2.90
2017-12-06T23:41:54.233Z,2.90
2017-12-06T23:44:21.659Z,3.00
2017-12-06T23:46:49.080Z,2.90
2017-12-06T23:49:17.272Z,2.90
2017-12-06T23:51:45.230Z,3.00
2017-12-06T23:54:13.425Z,3.00
2017-12-06T23:56:40.851Z,3.00
2017-12-06T23:59:08.269Z,3.10
